Time;durP1;ratioP1;P1;durP2;ratioP2;P2;SDS_P1;SDS_P2;PMS_P1;PMS_P2;Temp;Humidity;BMP_temperature;BMP_pressure;BME280_temperature;BME280_humidity;BME280_pressure;Samples;Min_cycle;Max_cycle;Signal;HPM_P1;HPM_P2
2022/04/06 00:01:16;;;;;;;2.72;2.13;;;8.50;99.90;;;;;;5031227;28;20703;-59
2022/04/06 00:03:43;;;;;;;2.63;2.42;;;8.50;99.90;;;;;;5029714;28;20022;-58
2022/04/06 00:06:09;;;;;;;2.60;2.40;;;8.50;99.90;;;;;;5029759;28;20049;-59
2022/04/06 00:08:35;;;;;;;2.60;2.40;;;8.50;99.90;;;;;;5029510;28;20439;-58
2022/04/06 00:11:00;;;;;;;2.70;2.50;;;8.50;99.90;;;;;;5029731;28;20114;-57
2022/04/06 00:13:26;;;;;;;3.42;3.13;;;8.40;99.90;;;;;;5029896;28;20132;-56
2022/04/06 00:15:52;;;;;;;2.80;2.60;;;8.50;99.90;;;;;;5029754;28;20474;-58
2022/04/06 00:18:17;;;;;;;2.63;2.42;;;8.50;99.90;;;;;;5030711;28;20025;-59
2022/04/06 00:20:43;;;;;;;3.38;2.67;;;8.40;99.90;;;;;;5029337;28;20084;-59
2022/04/06 00:23:09;;;;;;;4.45;2.55;;;8.40;99.90;;;;;;5030122;28;20061;-59
2022/04/06 00:25:34;;;;;;;3.15;2.90;;;8.40;99.90;;;;;;5029408;28;20057;-55
2022/04/06 00:28:00;;;;;;;2.25;2.13;;;8.40;99.90;;;;;;5028789;28;20400;-58
2022/04/06 00:30:26;;;;;;;4.15;2.10;;;8.50;99.90;;;;;;5029071;28;20111;-58
2022/04/06 00:32:53;;;;;;;2.60;2.40;;;8.50;99.90;;;;;;5029146;28;20022;-58
2022/04/06 00:35:33;;;;;;;2.72;2.42;;;8.50;99.90;;;;;;5029807;28;20029;-53
2022/04/06 00:38:01;;;;;;;2.42;2.10;;;8.50;99.90;;;;;;5030253;28;20361;-54
2022/04/06 00:40:27;;;;;;;3.67;2.28;;;8.50;99.90;;;;;;5029066;28;20022;-55
2022/04/06 00:42:53;;;;;;;2.88;2.67;;;8.40;99.90;;;;;;5029691;28;20415;-55
2022/04/06 00:45:20;;;;;;;2.70;2.40;;;8.40;99.90;;;;;;5029809;28;20040;-53
2022/04/06 00:47:47;;;;;;;2.72;2.53;;;8.40;99.90;;;;;;5030135;28;20040;-54
2022/04/06 00:50:12;;;;;;;2.30;2.20;;;8.40;99.90;;;;;;5030573;28;20466;-55
2022/04/06 00:52:41;;;;;;;2.40;2.30;;;8.50;99.90;;;;;;5033869;28;20104;-58
2022/04/06 00:55:08;;;;;;;3.10;2.33;;;8.50;99.90;;;;;;5033688;28;20021;-59
2022/04/06 00:57:34;;;;;;;2.75;2.55;;;8.40;99.90;;;;;;5034400;28;20117;-58
2022/04/06 01:00:01;;;;;;;3.20;2.47;;;8.30;99.90;;;;;;5034487;28;20448;-56
2022/04/06 01:02:27;;;;;;;5.10;4.60;;;8.40;99.90;;;;;;5034104;28;20075;-57
2022/04/06 01:04:53;;;;;;;3.15;2.58;;;8.30;99.90;;;;;;5034247;28;20524;-58
2022/04/06 01:07:20;;;;;;;2.33;2.22;;;8.30;99.90;;;;;;5034353;28;20059;-58
2022/04/06 01:09:46;;;;;;;3.38;2.28;;;8.30;99.90;;;;;;5034047;28;20453;-56
2022/04/06 01:12:13;;;;;;;2.70;2.50;;;8.40;99.90;;;;;;5034049;28;20033;-56
2022/04/06 01:14:39;;;;;;;3.53;2.40;;;8.40;99.90;;;;;;5033927;28;20489;-57
2022/04/06 01:17:09;;;;;;;2.83;2.60;;;8.40;99.90;;;;;;5034134;28;20028;-57
2022/04/06 01:19:41;;;;;;;3.17;2.33;;;8.40;99.90;;;;;;5034698;28;20052;-58
2022/04/06 01:22:11;;;;;;;2.42;2.22;;;8.40;99.90;;;;;;5034189;28;20052;-58
2022/04/06 01:24:37;;;;;;;2.60;2.40;;;8.40;99.90;;;;;;5033879;28;20018;-57
2022/04/06 01:27:04;;;;;;;2.90;2.70;;;8.40;99.90;;;;;;5033612;28;20481;-55
2022/04/06 01:29:31;;;;;;;2.28;2.17;;;8.40;99.90;;;;;;5034616;28;20029;-56
2022/04/06 01:32:06;;;;;;;2.95;2.70;;;8.40;99.90;;;;;;5032957;28;20505;-54
2022/04/06 01:34:33;;;;;;;3.22;2.85;;;8.40;99.90;;;;;;5033083;28;20033;-55
2022/04/06 01:36:58;;;;;;;2.60;2.40;;;8.40;99.90;;;;;;5034308;28;20029;-58
2022/04/06 01:39:24;;;;;;;2.60;2.40;;;8.40;99.90;;;;;;5033540;28;20377;-54
2022/04/06 01:41:50;;;;;;;2.53;2.33;;;8.40;99.90;;;;;;5034049;28;20433;-57
2022/04/06 01:44:15;;;;;;;2.25;2.15;;;8.30;99.90;;;;;;5033861;28;20018;-53
2022/04/06 01:46:41;;;;;;;5.13;2.25;;;8.30;99.90;;;;;;5034221;28;20105;-55
2022/04/06 01:52:12;;;;;;;2.03;1.83;;;8.30;99.90;;;;;;5033882;28;20063;-58
2022/04/06 01:54:37;;;;;;;2.60;2.40;;;8.30;99.90;;;;;;5032857;28;20641;-52
2022/04/06 01:57:03;;;;;;;2.63;2.42;;;8.30;99.90;;;;;;5032712;28;20087;-54
2022/04/06 01:59:29;;;;;;;3.45;2.30;;;8.30;99.90;;;;;;5032834;28;20017;-55
2022/04/06 02:01:55;;;;;;;2.72;2.53;;;8.30;99.90;;;;;;5031880;28;20117;-55
2022/04/06 02:04:20;;;;;;;2.42;2.20;;;8.40;99.90;;;;;;5032597;28;20018;-58
2022/04/06 02:06:46;;;;;;;2.40;2.28;;;8.40;99.90;;;;;;5033499;28;20026;-58
2022/04/06 02:09:13;;;;;;;2.38;2.17;;;8.40;99.90;;;;;;5032661;28;20034;-57
2022/04/06 02:11:39;;;;;;;2.30;2.20;;;8.40;99.90;;;;;;5033389;28;20014;-54
2022/04/06 02:14:06;;;;;;;6.38;2.78;;;8.40;99.90;;;;;;5033029;28;20043;-56
2022/04/06 02:16:34;;;;;;;3.65;2.17;;;8.30;99.90;;;;;;5032612;28;20509;-57
2022/04/06 02:19:00;;;;;;;1.98;1.80;;;8.30;99.90;;;;;;5032266;28;20059;-56
2022/04/06 02:21:26;;;;;;;2.40;2.20;;;8.20;99.90;;;;;;5033653;28;20485;-53
2022/04/06 02:23:52;;;;;;;2.50;2.35;;;8.30;99.90;;;;;;5033276;28;20025;-56
2022/04/06 02:26:17;;;;;;;3.13;2.20;;;8.30;99.90;;;;;;5033674;28;20072;-55
2022/04/06 02:28:43;;;;;;;2.47;2.28;;;8.30;99.90;;;;;;5033357;28;20033;-55
2022/04/06 02:31:08;;;;;;;5.22;3.03;;;8.30;99.90;;;;;;5033312;28;20085;-56
2022/04/06 02:33:34;;;;;;;2.63;2.40;;;8.40;99.90;;;;;;5033358;28;20477;-56
2022/04/06 02:36:00;;;;;;;4.47;2.28;;;8.30;99.90;;;;;;5033209;28;20456;-54
2022/04/06 02:38:26;;;;;;;2.85;2.65;;;8.30;99.90;;;;;;5033042;28;20079;-55
2022/04/06 02:40:52;;;;;;;2.78;2.58;;;8.30;99.90;;;;;;5033068;28;20475;-57
2022/04/06 02:43:18;;;;;;;4.78;2.50;;;8.30;99.90;;;;;;5033025;28;20029;-58
2022/04/06 02:45:44;;;;;;;2.30;2.10;;;8.30;99.90;;;;;;5032785;28;20025;-53
2022/04/06 02:48:09;;;;;;;2.80;2.60;;;8.30;99.90;;;;;;5031919;28;20076;-57
2022/04/06 02:50:35;;;;;;;2.80;2.60;;;8.30;99.90;;;;;;5031318;28;20083;-56
2022/04/06 02:53:01;;;;;;;4.47;3.00;;;8.30;99.90;;;;;;5032210;28;20424;-58
2022/04/06 02:55:27;;;;;;;2.83;2.63;;;8.30;99.90;;;;;;5030941;28;20369;-56
2022/04/06 02:57:52;;;;;;;2.78;2.55;;;8.40;99.90;;;;;;5031704;28;20034;-56
2022/04/06 03:00:18;;;;;;;2.85;2.65;;;8.40;99.90;;;;;;5031845;28;20025;-58
2022/04/06 03:02:44;;;;;;;7.65;6.60;;;8.40;99.90;;;;;;5032022;28;20032;-56
2022/04/06 03:05:10;;;;;;;5.47;5.05;;;8.40;99.90;;;;;;5031267;28;20026;-58
2022/04/06 03:07:35;;;;;;;4.15;2.83;;;8.30;99.90;;;;;;5030291;28;20036;-55
2022/04/06 03:10:01;;;;;;;2.65;2.45;;;8.30;99.90;;;;;;5031997;28;20025;-58
2022/04/06 03:12:27;;;;;;;4.35;2.70;;;8.30;99.90;;;;;;5032305;28;20031;-57
2022/04/06 03:14:53;;;;;;;3.25;2.80;;;8.30;99.90;;;;;;5031189;28;20045;-58
2022/04/06 03:17:19;;;;;;;3.00;2.70;;;8.30;99.90;;;;;;5032295;28;20055;-57
2022/04/06 03:19:44;;;;;;;2.75;2.55;;;8.20;99.90;;;;;;5032580;28;20028;-57
2022/04/06 03:22:16;;;;;;;2.30;2.20;;;8.20;99.90;;;;;;5030839;28;20507;-57
2022/04/06 03:24:42;;;;;;;4.07;3.67;;;8.20;99.90;;;;;;5032191;28;20029;-56
2022/04/06 03:27:08;;;;;;;2.90;2.70;;;8.10;99.90;;;;;;5032281;28;20037;-56
2022/04/06 03:29:33;;;;;;;4.53;2.55;;;8.10;99.90;;;;;;5032429;28;20037;-58
2022/04/06 03:31:59;;;;;;;3.00;2.22;;;8.10;99.90;;;;;;5032067;28;20460;-57
2022/04/06 03:34:24;;;;;;;3.13;2.88;;;8.10;99.90;;;;;;5032311;28;20512;-59
2022/04/06 03:36:50;;;;;;;2.65;2.45;;;8.00;99.90;;;;;;5032054;28;20026;-56
2022/04/06 03:39:16;;;;;;;4.13;2.22;;;8.00;99.90;;;;;;5032031;28;20017;-57
2022/04/06 03:41:41;;;;;;;2.83;2.40;;;8.00;99.90;;;;;;5032212;28;20091;-59
2022/04/06 03:44:07;;;;;;;3.88;2.67;;;8.00;99.90;;;;;;5031802;28;20026;-56
2022/04/06 03:46:33;;;;;;;2.83;2.63;;;7.90;99.90;;;;;;5031008;28;20029;-55
2022/04/06 03:48:58;;;;;;;3.78;2.72;;;7.90;99.90;;;;;;5031154;28;20041;-57
2022/04/06 03:51:24;;;;;;;2.78;2.58;;;7.90;99.90;;;;;;5031873;28;20105;-57
2022/04/06 03:53:49;;;;;;;3.42;2.97;;;7.80;99.90;;;;;;5031815;28;20029;-58
2022/04/06 03:56:15;;;;;;;3.25;2.72;;;7.70;99.90;;;;;;5030959;28;20033;-58
2022/04/06 03:58:41;;;;;;;4.50;4.07;;;7.70;99.90;;;;;;5031389;28;20030;-59
2022/04/06 04:01:06;;;;;;;6.70;4.07;;;7.60;99.90;;;;;;5030818;28;20026;-58
2022/04/06 04:03:32;;;;;;;3.60;3.38;;;7.50;99.90;;;;;;5030721;28;20028;-58
2022/04/06 04:05:58;;;;;;;3.63;3.33;;;7.30;99.90;;;;;;5037939;28;20032;-58
2022/04/06 04:08:26;;;;;;;4.97;4.05;;;7.30;99.90;;;;;;5039543;28;20033;-58
2022/04/06 04:10:52;;;;;;;9.27;3.45;;;7.30;99.90;;;;;;5041540;28;20468;-59
2022/04/06 04:13:18;;;;;;;4.78;3.58;;;7.30;99.90;;;;;;5033897;28;20095;-59
2022/04/06 04:15:44;;;;;;;6.15;3.42;;;7.30;99.90;;;;;;5030330;28;20041;-59
2022/04/06 04:18:10;;;;;;;4.00;3.05;;;7.30;99.90;;;;;;5030416;28;20021;-57
2022/04/06 04:20:36;;;;;;;4.55;2.80;;;7.30;99.90;;;;;;5030725;28;20451;-59
2022/04/06 04:23:02;;;;;;;4.60;3.28;;;7.30;99.90;;;;;;5030105;28;20014;-58
2022/04/06 04:25:27;;;;;;;3.35;3.15;;;7.30;99.90;;;;;;5030261;28;20013;-59
2022/04/06 04:27:53;;;;;;;4.07;3.47;;;7.40;99.90;;;;;;5030069;28;20391;-57
2022/04/06 04:30:19;;;;;;;4.05;3.65;;;7.40;99.90;;;;;;5029020;28;20021;-59
2022/04/06 04:32:45;;;;;;;4.35;2.92;;;7.40;99.90;;;;;;5030241;28;20037;-59
2022/04/06 04:35:11;;;;;;;4.85;3.53;;;7.40;99.90;;;;;;5029728;28;20025;-57
2022/04/06 04:37:37;;;;;;;7.05;3.80;;;7.40;99.90;;;;;;5030236;28;20052;-59
2022/04/06 04:40:04;;;;;;;4.13;3.75;;;7.40;99.90;;;;;;5029983;28;20022;-58
2022/04/06 04:42:30;;;;;;;3.38;3.10;;;7.40;99.90;;;;;;5030426;28;20029;-58
2022/04/06 04:44:56;;;;;;;4.25;3.20;;;7.40;99.90;;;;;;5031034;28;20384;-59
2022/04/06 04:47:22;;;;;;;3.58;3.28;;;7.30;99.90;;;;;;5031283;28;20156;-58
2022/04/06 04:49:47;;;;;;;3.83;3.30;;;7.40;99.90;;;;;;5031047;28;20029;-57
2022/04/06 04:52:13;;;;;;;2.90;2.70;;;7.40;99.90;;;;;;5030819;28;20048;-59
2022/04/06 04:54:39;;;;;;;3.70;3.40;;;7.40;99.90;;;;;;5030361;28;20033;-57
2022/04/06 04:57:05;;;;;;;3.88;3.58;;;7.50;99.90;;;;;;5029639;28;20025;-58
2022/04/06 04:59:31;;;;;;;6.32;3.95;;;7.50;99.90;;;;;;5029680;28;20100;-59
2022/04/06 05:01:57;;;;;;;6.10;3.85;;;7.60;99.90;;;;;;5029983;28;20475;-59
2022/04/06 05:04:23;;;;;;;9.02;3.58;;;7.60;99.90;;;;;;5029876;28;20029;-59
2022/04/06 05:06:48;;;;;;;6.03;3.30;;;7.60;99.90;;;;;;5028969;28;20392;-58
2022/04/06 05:09:14;;;;;;;2.90;2.70;;;7.70;99.90;;;;;;5029166;28;20056;-59
2022/04/06 05:11:40;;;;;;;4.72;2.47;;;7.80;99.90;;;;;;5029829;28;20067;-59
2022/04/06 05:14:06;;;;;;;2.92;2.63;;;7.80;99.90;;;;;;5029571;28;20112;-59
2022/04/06 05:16:32;;;;;;;2.97;2.78;;;7.80;99.90;;;;;;5029911;28;20116;-58
2022/04/06 05:18:58;;;;;;;3.50;3.20;;;7.80;99.90;;;;;;5028187;28;20025;-59
2022/04/06 05:21:24;;;;;;;2.88;2.67;;;7.80;99.90;;;;;;5029884;28;20084;-59
2022/04/06 05:23:50;;;;;;;3.17;2.85;;;7.90;99.90;;;;;;5029815;28;20021;-59
2022/04/06 05:26:15;;;;;;;4.40;3.00;;;8.00;99.90;;;;;;5030537;28;20091;-59
2022/04/06 05:28:41;;;;;;;3.78;3.47;;;8.00;99.90;;;;;;5030530;28;20029;-59
2022/04/06 05:31:07;;;;;;;4.95;3.60;;;8.00;99.90;;;;;;5029438;28;20100;-58
2022/04/06 05:33:32;;;;;;;14.35;7.32;;;8.00;99.90;;;;;;5028310;28;20447;-56
2022/04/06 05:35:58;;;;;;;24.85;10.68;;;8.10;99.90;;;;;;5028879;28;20467;-58
2022/04/06 05:38:25;;;;;;;20.38;10.20;;;8.10;99.90;;;;;;5030003;28;20033;-59
2022/04/06 05:40:51;;;;;;;20.77;10.00;;;8.30;99.90;;;;;;5033554;28;20600;-59
2022/04/06 05:43:17;;;;;;;18.63;10.13;;;8.30;99.90;;;;;;5033724;28;20029;-56
2022/04/06 05:45:43;;;;;;;66.78;22.80;;;8.40;99.90;;;;;;5033805;28;20029;-58
2022/04/06 05:48:09;;;;;;;32.83;12.63;;;8.50;99.90;;;;;;5033334;28;20029;-59
2022/04/06 05:50:35;;;;;;;56.85;17.58;;;8.50;99.90;;;;;;5032958;28;20033;-58
2022/04/06 05:53:00;;;;;;;28.08;11.30;;;8.50;99.90;;;;;;5032925;28;20030;-59
2022/04/06 05:55:26;;;;;;;8.25;4.30;;;8.60;99.90;;;;;;5033433;28;20029;-60
2022/04/06 05:57:52;;;;;;;31.15;14.70;;;8.60;99.90;;;;;;5032688;28;20022;-57
2022/04/06 06:00:18;;;;;;;27.92;12.38;;;8.70;99.90;;;;;;5033579;28;20033;-59
2022/04/06 06:02:45;;;;;;;16.50;8.25;;;8.80;99.90;;;;;;5033341;28;20029;-58
2022/04/06 06:05:11;;;;;;;13.13;10.13;;;8.90;99.90;;;;;;5033626;28;20030;-59
2022/04/06 06:07:36;;;;;;;2.42;2.22;;;8.90;99.90;;;;;;5033605;28;20030;-59
2022/04/06 06:10:03;;;;;;;7.93;7.13;;;9.00;99.90;;;;;;5033316;28;20424;-59
2022/04/06 06:12:30;;;;;;;8.10;6.78;;;9.10;99.90;;;;;;5033569;28;20499;-60
2022/04/06 06:14:56;;;;;;;4.50;4.10;;;9.20;99.90;;;;;;5032938;28;20037;-57
2022/04/06 06:17:22;;;;;;;4.78;4.03;;;9.30;99.90;;;;;;5033641;28;20125;-59
2022/04/06 06:19:47;;;;;;;3.33;3.10;;;9.40;99.90;;;;;;5033565;28;20368;-58
2022/04/06 06:22:13;;;;;;;3.22;3.03;;;9.50;99.90;;;;;;5033386;28;20025;-59
2022/04/06 06:24:39;;;;;;;2.90;2.58;;;9.70;99.90;;;;;;5033575;28;20100;-59
2022/04/06 06:27:05;;;;;;;7.65;4.50;;;9.80;99.90;;;;;;5033138;28;20022;-57
2022/04/06 06:29:31;;;;;;;3.70;3.40;;;9.80;99.90;;;;;;5032136;28;20035;-59
2022/04/06 06:31:57;;;;;;;3.17;2.92;;;9.90;99.90;;;;;;5032506;28;20037;-60
2022/04/06 06:34:23;;;;;;;3.03;2.65;;;10.10;99.90;;;;;;5032150;28;20023;-57
2022/04/06 06:36:49;;;;;;;3.25;3.05;;;10.20;99.90;;;;;;5032367;28;20034;-58
2022/04/06 06:39:14;;;;;;;4.65;2.92;;;10.20;99.90;;;;;;5032331;28;20026;-57
2022/04/06 06:41:42;;;;;;;3.70;3.40;;;10.30;99.90;;;;;;5031221;28;20029;-56
2022/04/06 06:44:07;;;;;;;2.17;2.00;;;10.30;99.90;;;;;;5031804;28;20033;-56
2022/04/06 06:46:33;;;;;;;4.07;2.78;;;10.40;99.90;;;;;;5031843;28;20021;-56
2022/04/06 06:49:03;;;;;;;2.40;1.98;;;10.40;99.90;;;;;;5032302;28;20021;-59
2022/04/06 06:51:30;;;;;;;4.05;3.00;;;10.40;99.90;;;;;;5031864;28;20029;-57
2022/04/06 06:53:56;;;;;;;3.00;2.70;;;10.40;99.90;;;;;;5032487;28;20025;-58
2022/04/06 06:56:22;;;;;;;2.30;2.20;;;10.40;99.90;;;;;;5031612;28;20384;-59
2022/04/06 06:58:48;;;;;;;2.55;2.25;;;10.40;99.90;;;;;;5032716;28;20467;-59
2022/04/06 07:01:14;;;;;;;2.60;2.15;;;10.40;99.90;;;;;;5032527;28;20083;-58
2022/04/06 07:03:40;;;;;;;4.30;2.92;;;10.50;99.90;;;;;;5031511;28;20025;-59
2022/04/06 07:06:07;;;;;;;2.17;1.98;;;10.60;99.90;;;;;;5032309;28;20461;-56
2022/04/06 07:08:32;;;;;;;2.38;2.08;;;10.80;99.90;;;;;;5032460;28;20029;-59
2022/04/06 07:10:58;;;;;;;2.60;2.17;;;10.80;99.90;;;;;;5032299;28;20440;-59
2022/04/06 07:13:25;;;;;;;3.40;2.10;;;10.80;99.90;;;;;;5032076;28;20042;-59
2022/04/06 07:15:51;;;;;;;2.33;2.20;;;11.00;99.90;;;;;;5031782;28;20038;-59
2022/04/06 07:18:18;;;;;;;2.03;1.92;;;11.10;99.90;;;;;;5032381;28;20052;-59
2022/04/06 07:20:44;;;;;;;2.00;1.90;;;11.10;99.90;;;;;;5032233;28;20028;-59
2022/04/06 07:23:10;;;;;;;3.30;2.75;;;11.10;99.90;;;;;;5030847;28;20026;-59
2022/04/06 07:25:36;;;;;;;2.20;2.00;;;11.30;99.90;;;;;;5031795;28;20031;-59
2022/04/06 07:28:03;;;;;;;2.10;1.90;;;11.30;99.90;;;;;;5031496;28;20112;-59
2022/04/06 07:30:29;;;;;;;5.50;1.48;;;11.40;99.90;;;;;;5032030;28;20075;-59
2022/04/06 07:32:57;;;;;;;3.28;3.08;;;11.50;99.90;;;;;;5030850;28;20034;-57
2022/04/06 07:35:22;;;;;;;3.30;2.42;;;11.50;99.90;;;;;;5030514;28;20100;-59
2022/04/06 07:37:50;;;;;;;3.88;1.73;;;11.60;99.90;;;;;;5031910;28;20490;-59
2022/04/06 07:40:18;;;;;;;1.85;1.75;;;11.80;99.90;;;;;;5031775;28;20022;-58
2022/04/06 07:42:44;;;;;;;1.45;1.35;;;12.20;99.90;;;;;;5030540;28;20427;-59
2022/04/06 07:45:18;;;;;;;3.42;1.50;;;12.40;99.90;;;;;;5030547;28;20076;-59
2022/04/06 07:47:49;;;;;;;2.42;1.75;;;12.60;99.90;;;;;;5030910;28;20041;-58
2022/04/06 07:50:16;;;;;;;3.17;2.00;;;12.40;99.90;;;;;;5030593;28;20559;-55
2022/04/06 07:52:43;;;;;;;1.70;1.42;;;12.30;99.90;;;;;;5030763;28;20084;-55
2022/04/06 07:55:10;;;;;;;7.18;4.15;;;12.30;99.90;;;;;;5030300;28;20032;-59
2022/04/06 07:57:36;;;;;;;1.67;1.45;;;12.50;99.90;;;;;;5030478;28;20018;-59
2022/04/06 08:00:22;;;;;;;4.40;3.65;;;12.90;99.90;;;;;;5030403;28;20053;-59
2022/04/06 08:02:49;;;;;;;30.13;14.52;;;12.50;99.90;;;;;;5030145;28;20041;-59
2022/04/06 08:05:17;;;;;;;2.28;1.65;;;12.70;99.90;;;;;;5030247;28;20025;-60
2022/04/06 08:07:44;;;;;;;1.95;1.85;;;12.50;99.90;;;;;;5030401;28;20052;-59
2022/04/06 08:10:15;;;;;;;11.40;4.35;;;12.60;99.90;;;;;;5030232;28;20032;-59
2022/04/06 08:12:41;;;;;;;3.03;2.08;;;12.70;99.90;;;;;;5030392;28;20128;-58
2022/04/06 08:15:09;;;;;;;1.77;1.60;;;12.80;99.90;;;;;;5029942;28;20053;-59
2022/04/06 08:17:40;;;;;;;2.90;2.00;;;13.10;99.90;;;;;;5030394;28;20057;-60
2022/04/06 08:20:08;;;;;;;12.18;3.10;;;13.20;99.90;;;;;;5031327;28;20028;-58
2022/04/06 08:22:34;;;;;;;2.33;2.10;;;12.70;99.90;;;;;;5030513;28;20405;-59
2022/04/06 08:25:00;;;;;;;33.85;16.08;;;13.00;99.90;;;;;;5031373;28;20061;-59
2022/04/06 08:27:27;;;;;;;8.48;5.32;;;13.00;99.90;;;;;;5031296;28;20048;-60
2022/04/06 08:29:56;;;;;;;4.07;3.03;;;12.90;99.90;;;;;;5031057;28;20025;-60
2022/04/06 08:32:22;;;;;;;4.25;3.05;;;13.20;99.90;;;;;;5031491;28;20056;-59
2022/04/06 08:34:48;;;;;;;6.45;5.13;;;13.40;99.90;;;;;;5030775;28;20033;-59
2022/04/06 08:37:13;;;;;;;5.85;5.28;;;13.10;99.90;;;;;;5030931;28;20028;-60
2022/04/06 08:39:39;;;;;;;1.90;1.35;;;13.10;99.90;;;;;;5031464;28;20067;-60
2022/04/06 08:42:05;;;;;;;2.03;1.70;;;13.30;99.90;;;;;;5030875;28;20120;-59
2022/04/06 08:44:31;;;;;;;4.35;2.15;;;13.40;99.90;;;;;;5031359;28;20148;-59
2022/04/06 08:47:04;;;;;;;7.97;7.18;;;13.60;99.90;;;;;;5031195;28;20519;-59
2022/04/06 08:49:30;;;;;;;16.42;3.25;;;13.60;99.90;;;;;;5031602;28;20060;-59
2022/04/06 08:51:56;;;;;;;4.22;3.83;;;13.90;99.90;;;;;;5031087;28;20045;-58
2022/04/06 08:54:22;;;;;;;2.55;2.00;;;14.00;99.90;;;;;;5031244;28;20064;-59
2022/04/06 08:56:48;;;;;;;2.13;1.92;;;14.40;99.90;;;;;;5029802;28;20029;-58
2022/04/06 08:59:14;;;;;;;1.50;1.40;;;14.20;99.90;;;;;;5029692;28;20072;-59
2022/04/06 09:01:40;;;;;;;1.10;1.00;;;14.00;99.90;;;;;;5031242;28;20107;-59
2022/04/06 09:04:06;;;;;;;3.17;2.38;;;14.50;99.90;;;;;;5031061;28;20341;-59
2022/04/06 09:06:39;;;;;;;2.92;1.50;;;14.50;99.90;;;;;;5031266;28;20120;-60
2022/04/06 09:09:05;;;;;;;;;;;15.00;99.90;;;;;;5031560;28;20382;-60
2022/04/06 09:11:44;;;;;;;2.38;1.40;;;15.10;99.90;;;;;;5030330;28;19912;-59
2022/04/06 09:15:02;;;;;;;4.97;1.67;;;15.30;99.90;;;;;;5031286;28;20053;-60
2022/04/06 09:17:28;;;;;;;0.93;0.93;;;15.40;99.90;;;;;;5033686;28;20029;-58
2022/04/06 09:19:54;;;;;;;5.47;2.33;;;15.30;99.90;;;;;;5033820;28;20034;-60
2022/04/06 09:22:20;;;;;;;25.65;5.10;;;14.90;99.90;;;;;;5033141;28;20120;-59
2022/04/06 09:24:56;;;;;;;7.38;2.00;;;14.80;99.90;;;;;;5033872;28;20071;-59
2022/04/06 09:27:22;;;;;;;0.85;0.82;;;15.10;99.90;;;;;;5033727;28;20049;-57
2022/04/06 09:29:50;;;;;;;2.08;1.30;;;15.20;99.90;;;;;;5033661;28;20057;-58
2022/04/06 09:32:16;;;;;;;2.78;1.00;;;15.20;99.90;;;;;;5033711;28;20029;-59
2022/04/06 09:34:42;;;;;;;4.35;1.85;;;15.60;99.90;;;;;;5034420;28;20545;-57
2022/04/06 09:37:31;;;;;;;0.70;0.70;;;15.70;99.90;;;;;;5034289;28;20018;-58
2022/04/06 09:40:06;;;;;;;0.90;0.90;;;16.00;99.90;;;;;;5010015;28;20034;-59
2022/04/06 09:42:32;;;;;;;1.35;0.77;;;16.20;99.30;;;;;;5015513;28;20067;-57
2022/04/06 09:47:58;;;;;;;8.73;2.95;;;16.10;98.80;;;;;;5021237;28;20446;-60
2022/04/06 09:50:27;;;;;;;1.80;0.93;;;15.90;97.80;;;;;;5026304;28;20091;-60
2022/04/06 09:52:57;;;;;;;6.65;1.10;;;16.10;97.40;;;;;;5021253;28;20033;-59
2022/04/06 09:55:23;;;;;;;1.40;1.08;;;16.20;99.00;;;;;;5023581;28;20029;-59
2022/04/06 09:57:52;;;;;;;6.00;1.23;;;16.20;99.10;;;;;;5014202;28;20396;-57
2022/04/06 10:00:23;;;;;;;8.02;1.63;;;16.20;97.00;;;;;;5015766;28;20175;-57
2022/04/06 10:03:08;;;;;;;5.43;1.15;;;16.30;95.90;;;;;;5014171;28;20374;-59
2022/04/06 10:05:38;;;;;;;3.67;0.88;;;16.80;97.30;;;;;;5021009;28;20041;-59
2022/04/06 10:08:06;;;;;;;6.78;2.05;;;16.90;96.70;;;;;;5040956;28;20431;-59
2022/04/06 10:10:33;;;;;;;1.90;0.80;;;16.70;97.70;;;;;;5025621;28;20040;-59
2022/04/06 10:12:59;;;;;;;2.03;1.00;;;17.30;95.70;;;;;;5042829;28;20135;-59
2022/04/06 10:15:25;;;;;;;0.82;0.80;;;17.70;95.80;;;;;;5043238;28;20041;-59
2022/04/06 10:17:52;;;;;;;0.77;0.70;;;17.80;95.70;;;;;;5042492;28;20044;-58
2022/04/06 10:20:35;;;;;;;9.35;3.08;;;18.00;93.70;;;;;;5042981;28;20090;-57
2022/04/06 10:23:39;;;;;;;1.25;0.90;;;17.30;92.90;;;;;;5042306;28;20025;-58
2022/04/06 10:26:43;;;;;;;13.88;4.35;;;17.30;92.00;;;;;;5040901;28;20037;-57
2022/04/06 10:29:09;;;;;;;1.05;0.70;;;17.00;92.40;;;;;;5024007;28;20037;-60
2022/04/06 10:35:17;;;;;;;1.50;1.00;;;17.70;92.20;;;;;;5022460;28;20524;-60
2022/04/06 10:38:00;;;;;;;0.68;0.68;;;17.50;90.80;;;;;;5022502;28;20026;-60
2022/04/06 10:40:31;;;;;;;4.97;2.40;;;17.60;90.40;;;;;;5022559;28;20388;-59
2022/04/06 10:42:57;;;;;;;14.68;4.32;;;17.20;90.00;;;;;;5031653;28;20049;-60
2022/04/06 10:46:12;;;;;;;10.55;3.65;;;17.10;89.80;;;;;;5032897;28;20064;-59
2022/04/06 10:49:07;;;;;;;1.23;0.80;;;17.30;89.00;;;;;;5032385;28;20034;-58
2022/04/06 10:51:34;;;;;;;0.70;0.68;;;18.10;90.20;;;;;;5032914;28;20045;-59
2022/04/06 10:54:12;;;;;;;5.95;2.40;;;18.20;86.50;;;;;;5032978;28;20034;-59
2022/04/06 10:56:50;;;;;;;4.22;1.83;;;18.20;84.10;;;;;;5032969;28;20472;-60
2022/04/06 10:59:19;;;;;;;0.60;0.60;;;18.30;82.50;;;;;;5032721;28;20596;-60
2022/04/06 11:01:46;;;;;;;3.20;1.35;;;18.40;84.50;;;;;;5032889;28;20670;-60
2022/04/06 11:04:22;;;;;;;11.10;3.13;;;18.30;82.40;;;;;;5032777;28;20037;-60
2022/04/06 11:06:49;;;;;;;4.03;0.88;;;17.90;82.50;;;;;;5032670;28;20051;-60
2022/04/06 11:12:14;;;;;;;3.60;1.08;;;19.20;82.70;;;;;;5032055;28;20060;-58
2022/04/06 11:14:42;;;;;;;0.75;0.60;;;19.10;77.40;;;;;;5032312;28;20099;-60
2022/04/06 11:17:30;;;;;;;1.77;0.60;;;20.10;75.50;;;;;;5032486;28;20030;-60
2022/04/06 11:19:57;;;;;;;1.15;0.50;;;20.30;78.10;;;;;;5032506;28;20049;-60
2022/04/06 11:22:22;;;;;;;1.33;0.40;;;19.90;73.40;;;;;;5032595;28;20055;-59
2022/04/06 11:24:49;;;;;;;1.90;0.80;;;19.70;72.70;;;;;;5032514;28;20049;-60
2022/04/06 11:27:32;;;;;;;5.85;0.95;;;20.00;75.30;;;;;;5032427;28;20030;-60
2022/04/06 11:30:18;;;;;;;2.10;0.82;;;20.50;70.10;;;;;;5030904;28;20382;-60
2022/04/06 11:32:57;;;;;;;6.18;2.03;;;21.00;66.20;;;;;;5032355;28;20061;-59
2022/04/06 11:35:34;;;;;;;6.57;2.03;;;20.60;63.90;;;;;;5032001;28;20030;-60
2022/04/06 11:38:00;;;;;;;6.57;2.47;;;19.80;65.40;;;;;;5031526;28;20041;-58
2022/04/06 11:40:27;;;;;;;8.88;2.00;;;19.90;67.10;;;;;;5032201;28;20018;-59
2022/04/06 11:43:05;;;;;;;3.15;1.27;;;19.90;64.50;;;;;;5032073;28;20025;-60
2022/04/06 11:45:41;;;;;;;4.50;1.40;;;20.60;66.60;;;;;;5031942;28;20025;-60
2022/04/06 11:48:11;;;;;;;1.27;0.47;;;21.20;62.90;;;;;;5032054;28;20030;-59
2022/04/06 11:50:40;;;;;;;2.35;0.95;;;21.80;63.50;;;;;;5031881;28;20378;-58
2022/04/06 11:53:06;;;;;;;3.25;0.65;;;22.30;62.70;;;;;;5031838;28;20053;-59
2022/04/06 11:56:00;;;;;;;4.70;1.38;;;22.20;59.40;;;;;;5032102;28;20468;-60
2022/04/06 11:58:38;;;;;;;;;;;22.60;62.00;;;;;;5032346;28;20036;-58
2022/04/06 12:01:15;;;;;;;0.40;0.40;;;22.60;58.90;;;;;;5031750;28;19909;-59
2022/04/06 12:03:42;;;;;;;1.00;0.40;;;22.70;56.70;;;;;;5031768;28;20075;-61
2022/04/06 12:06:10;;;;;;;0.80;0.40;;;21.90;57.80;;;;;;5031678;28;20029;-60
2022/04/06 12:08:37;;;;;;;1.60;0.30;;;23.50;57.00;;;;;;5031777;28;20060;-60
2022/04/06 12:11:03;;;;;;;10.35;2.08;;;24.80;54.60;;;;;;5031560;28;20468;-60
2022/04/06 12:13:36;;;;;;;0.40;0.40;;;25.00;50.00;;;;;;5030244;28;20099;-60
2022/04/06 12:16:03;;;;;;;1.65;0.40;;;25.70;48.90;;;;;;5031393;28;20037;-60
2022/04/06 12:18:29;;;;;;;0.80;0.50;;;25.90;48.90;;;;;;5031652;28;20398;-60
2022/04/06 12:20:55;;;;;;;1.35;0.55;;;26.10;48.90;;;;;;5031425;28;20017;-60
2022/04/06 12:23:24;;;;;;;1.98;0.30;;;24.20;47.70;;;;;;5031666;28;20452;-60
2022/04/06 12:25:50;;;;;;;0.60;0.30;;;23.80;48.80;;;;;;5031320;28;20021;-60
2022/04/06 12:28:27;;;;;;;0.50;0.35;;;25.80;48.70;;;;;;5031541;28;20026;-60
2022/04/06 12:31:01;;;;;;;0.40;0.30;;;25.80;46.90;;;;;;5031537;28;20201;-60
2022/04/06 12:33:33;;;;;;;0.90;0.47;;;27.60;45.50;;;;;;5030356;28;20036;-61
2022/04/06 12:36:08;;;;;;;6.70;4.45;;;26.50;42.80;;;;;;5031307;28;20057;-60
2022/04/06 12:38:39;;;;;;;0.20;0.20;;;26.10;44.90;;;;;;5031419;28;20017;-61
2022/04/06 12:41:10;;;;;;;1.55;0.85;;;23.80;45.80;;;;;;5031437;28;20073;-60
2022/04/06 12:43:40;;;;;;;3.65;0.75;;;24.00;47.00;;;;;;5030658;28;20029;-61
2022/04/06 12:46:06;;;;;;;0.20;0.20;;;24.90;46.20;;;;;;5030159;28;20036;-60
2022/04/06 12:48:32;;;;;;;3.50;0.30;;;25.10;44.60;;;;;;5032684;28;20040;-62
2022/04/06 12:50:57;;;;;;;1.92;0.50;;;25.70;42.70;;;;;;5034019;28;20025;-61
2022/04/06 12:53:23;;;;;;;0.73;0.50;;;26.50;44.30;;;;;;5035139;28;20036;-61
2022/04/06 12:56:11;;;;;;;1.00;0.20;;;26.80;44.20;;;;;;5034700;28;20386;-61
2022/04/06 12:58:37;;;;;;;0.55;0.20;;;26.60;42.80;;;;;;5035274;28;20029;-61
2022/04/06 13:01:09;;;;;;;1.55;0.22;;;27.90;41.20;;;;;;5034744;28;20041;-61
2022/04/06 13:03:36;;;;;;;0.30;0.30;;;28.20;41.70;;;;;;5034184;28;20357;-61
2022/04/06 13:06:02;;;;;;;0.88;0.30;;;28.60;39.60;;;;;;5032885;28;20099;-61
2022/04/06 13:08:27;;;;;;;0.17;0.17;;;29.00;39.00;;;;;;5034989;28;20029;-60